Time;durP1;ratioP1;P1;durP2;ratioP2;P2;SDS_P1;SDS_P2;PMS_P1;PMS_P2;Temp;Humidity;BMP_temperature;BMP_pressure;BME280_temperature;BME280_humidity;BME280_pressure;Samples;Min_cycle;Max_cycle;Signal;HPM_P1;HPM_P2
2024/03/01 00:00:00;;;;;;;0.80;0.80;;;;;;;10.28;86.65;97184.75;5065011;28;20059;-56
2024/03/01 00:02:27;;;;;;;0.80;0.80;;;;;;;10.29;87.45;97185.56;5066042;28;20127;-68
2024/03/01 00:04:53;;;;;;;0.90;0.90;;;;;;;10.14;87.56;97164.28;5064233;28;20064;-56
2024/03/01 00:07:20;;;;;;;0.70;0.70;;;;;;;10.21;88.50;97181.81;5063467;28;20044;-58
2024/03/01 00:09:47;;;;;;;0.80;0.80;;;;;;;9.53;89.05;97064.56;5063889;28;20517;-65
2024/03/01 00:12:14;;;;;;;0.80;0.80;;;;;;;10.13;89.67;97174.53;5065042;28;20053;-56
2024/03/01 00:14:41;;;;;;;0.80;0.80;;;;;;;9.85;92.77;97176.69;5065426;28;20063;-65
2024/03/01 00:17:07;;;;;;;0.80;0.80;;;;;;;9.73;93.82;97154.69;5064324;28;20063;-57
2024/03/01 00:19:34;;;;;;;0.80;0.80;;;;;;;9.63;93.71;97149.72;5074316;28;20143;-57
2024/03/01 00:22:01;;;;;;;0.70;0.70;;;;;;;9.70;94.24;97154.59;5085770;28;20052;-63
2024/03/01 00:24:28;;;;;;;0.70;0.70;;;;;;;9.65;96.05;97175.06;5085999;28;20154;-64
2024/03/01 00:26:54;;;;;;;0.80;0.80;;;;;;;9.29;96.31;97122.88;5083842;28;20048;-63
2024/03/01 00:29:21;;;;;;;0.80;0.80;;;;;;;9.05;96.88;97078.88;5084922;28;20044;-65
2024/03/01 00:31:48;;;;;;;0.70;0.70;;;;;;;9.70;97.35;97172.03;5083768;28;20078;-57
2024/03/01 00:34:15;;;;;;;0.80;0.80;;;;;;;9.67;98.12;97164.44;5083465;28;20055;-65
2024/03/01 00:36:42;;;;;;;0.70;0.70;;;;;;;9.58;98.93;97157.50;5085179;28;20539;-56
2024/03/01 00:39:09;;;;;;;0.70;0.70;;;;;;;9.31;98.88;97115.00;5083498;28;20044;-64
2024/03/01 00:41:35;;;;;;;0.70;0.70;;;;;;;9.69;99.08;97153.81;5084889;28;20062;-64
2024/03/01 00:44:02;;;;;;;0.70;0.70;;;;;;;9.58;100.00;97152.75;5084214;28;20056;-56
2024/03/01 00:46:29;;;;;;;0.60;0.60;;;;;;;9.53;100.00;97157.78;5083165;28;20533;-56
2024/03/01 00:48:56;;;;;;;0.70;0.70;;;;;;;9.59;100.00;97143.31;5084942;28;20074;-61
2024/03/01 00:51:23;;;;;;;0.70;0.70;;;;;;;9.42;100.00;97127.09;5085311;28;20064;-58
2024/03/01 00:53:49;;;;;;;0.70;0.70;;;;;;;8.25;100.00;97061.13;5085114;28;20060;-57
2024/03/01 00:56:17;;;;;;;0.70;0.70;;;;;;;5.79;100.00;96668.72;5084458;28;20043;-63
2024/03/01 00:58:44;;;;;;;0.65;0.65;;;;;;;8.25;100.00;97127.34;5084415;28;20056;-56
2024/03/01 01:01:12;;;;;;;0.70;0.70;;;;;;;8.26;100.00;97102.16;5084782;28;20047;-63
2024/03/01 01:03:40;;;;;;;0.63;0.63;;;;;;;8.60;100.00;97100.69;4808460;28;5001669;-57
2024/03/01 01:06:07;;;;;;;0.70;0.70;;;;;;;8.68;100.00;97096.91;5064771;28;20140;-64
2024/03/01 01:08:33;;;;;;;0.60;0.60;;;;;;;8.87;100.00;97084.00;5064328;28;20439;-59
2024/03/01 01:11:00;;;;;;;0.70;0.70;;;;;;;8.71;100.00;97052.03;5064341;28;20852;-57
2024/03/01 01:13:27;;;;;;;0.70;0.70;;;;;;;9.04;100.00;97055.19;5064474;28;20137;-57
2024/03/01 01:15:54;;;;;;;0.80;0.80;;;;;;;9.10;100.00;97051.00;5064204;28;20140;-57
2024/03/01 01:18:22;;;;;;;0.70;0.70;;;;;;;9.08;100.00;97017.38;5062428;28;20048;-64
2024/03/01 01:20:49;;;;;;;0.70;0.70;;;;;;;9.03;100.00;97037.81;5063929;28;20052;-57
2024/03/01 01:23:16;;;;;;;0.70;0.70;;;;;;;9.03;100.00;97054.38;5062808;28;20102;-64
2024/03/01 01:25:42;;;;;;;0.70;0.70;;;;;;;8.90;100.00;97032.75;5063998;28;20056;-64
2024/03/01 01:28:09;;;;;;;0.70;0.70;;;;;;;9.12;100.00;97057.75;5063638;28;20045;-65
2024/03/01 01:30:37;;;;;;;0.70;0.70;;;;;;;8.78;100.00;96963.81;5063990;28;20487;-64
2024/03/01 01:33:04;;;;;;;0.80;0.80;;;;;;;9.23;100.00;97033.13;5064120;28;20049;-57
2024/03/01 01:35:32;;;;;;;0.70;0.70;;;;;;;9.15;100.00;97026.63;5064093;28;20415;-65
2024/03/01 01:37:59;;;;;;;0.70;0.70;;;;;;;8.67;100.00;96940.69;5064131;28;20045;-64
2024/03/01 01:40:30;;;;;;;0.70;0.70;;;;;;;9.31;100.00;96998.91;5063088;28;20049;-58
2024/03/01 01:43:02;;;;;;;0.70;0.70;;;;;;;9.11;100.00;96989.84;5063918;28;20129;-64
2024/03/01 01:45:32;;;;;;;0.70;0.70;;;;;;;9.23;100.00;96997.97;5063788;28;20167;-59
2024/03/01 01:48:02;;;;;;;0.73;0.73;;;;;;;9.27;100.00;97006.34;5063195;28;20503;-64
2024/03/01 01:50:30;;;;;;;0.80;0.80;;;;;;;8.93;100.00;96949.97;5062879;28;20092;-56
2024/03/01 01:52:59;;;;;;;0.70;0.70;;;;;;;9.00;100.00;96954.84;5063679;28;20048;-65
2024/03/01 01:55:27;;;;;;;0.70;0.70;;;;;;;9.18;100.00;96950.50;5063586;28;20045;-57
2024/03/01 01:57:53;;;;;;;0.70;0.70;;;;;;;9.15;100.00;96956.75;5061766;28;20444;-56
2024/03/01 02:00:20;;;;;;;0.70;0.70;;;;;;;9.28;100.00;96982.28;5062587;28;20084;-56
2024/03/01 02:02:50;;;;;;;0.70;0.70;;;;;;;8.58;100.00;96987.03;5062558;28;20056;-65
2024/03/01 02:05:18;;;;;;;0.80;0.80;;;;;;;8.69;100.00;96966.78;5062703;28;20617;-57
2024/03/01 02:07:48;;;;;;;0.70;0.70;;;;;;;8.66;100.00;96958.44;5063745;28;20048;-56
2024/03/01 02:10:18;;;;;;;0.70;0.70;;;;;;;8.88;100.00;96969.56;5063309;28;20059;-57
2024/03/01 02:12:55;;;;;;;0.70;0.70;;;;;;;8.54;100.00;96928.16;5063442;28;20052;-56
2024/03/01 02:15:26;;;;;;;0.70;0.70;;;;;;;8.87;100.00;96986.50;5063361;28;20052;-56
2024/03/01 02:17:57;;;;;;;0.70;0.70;;;;;;;8.50;100.00;96930.06;5062308;28;20076;-65
2024/03/01 02:20:27;;;;;;;0.70;0.70;;;;;;;8.79;100.00;96981.97;5063932;28;20103;-65
2024/03/01 02:22:58;;;;;;;0.70;0.70;;;;;;;8.87;100.00;96997.56;5062065;28;20044;-56
2024/03/01 02:25:25;;;;;;;0.73;0.73;;;;;;;8.89;100.00;96981.44;5063941;28;20056;-59
2024/03/01 02:27:51;;;;;;;0.70;0.70;;;;;;;8.70;100.00;96951.00;5063424;28;20051;-65
2024/03/01 02:30:18;;;;;;;0.70;0.70;;;;;;;8.55;100.00;96922.28;5061281;28;20049;-57
2024/03/01 02:32:46;;;;;;;0.70;0.70;;;;;;;8.90;100.00;96994.06;5061400;28;20523;-65
2024/03/01 02:35:13;;;;;;;0.70;0.70;;;;;;;9.03;100.00;96977.03;5062681;28;20106;-65
2024/03/01 02:37:43;;;;;;;0.80;0.80;;;;;;;9.07;100.00;96977.13;5062853;28;20127;-66
2024/03/01 02:40:11;;;;;;;0.70;0.70;;;;;;;9.08;100.00;96989.75;5062824;28;20526;-66
2024/03/01 02:42:38;;;;;;;0.70;0.70;;;;;;;9.11;100.00;96989.03;5061066;28;20059;-56
2024/03/01 02:45:05;;;;;;;0.70;0.70;;;;;;;9.16;100.00;96991.50;5062401;28;20127;-58
2024/03/01 02:47:32;;;;;;;0.80;0.80;;;;;;;9.24;100.00;96993.25;5061221;28;20056;-66
2024/03/01 02:49:58;;;;;;;0.80;0.80;;;;;;;9.26;100.00;96985.41;5062940;28;20044;-56
2024/03/01 02:52:25;;;;;;;0.70;0.70;;;;;;;9.27;100.00;96998.06;5062251;28;20063;-57
2024/03/01 02:54:52;;;;;;;0.70;0.70;;;;;;;9.24;100.00;96976.69;5061139;28;20056;-66
2024/03/01 02:57:19;;;;;;;0.70;0.70;;;;;;;9.34;100.00;97003.75;5061108;28;20076;-56
2024/03/01 02:59:45;;;;;;;0.70;0.70;;;;;;;9.33;100.00;97002.13;5062483;28;20451;-66
2024/03/01 03:02:12;;;;;;;0.75;0.75;;;;;;;9.29;100.00;96984.69;5044487;28;20626;-56
2024/03/01 03:04:39;;;;;;;0.80;0.80;;;;;;;9.35;100.00;96983.22;5042267;28;20049;-66
2024/03/01 03:07:06;;;;;;;0.70;0.70;;;;;;;9.47;100.00;96980.31;5042042;28;20059;-57
2024/03/01 03:09:46;;;;;;;0.80;0.80;;;;;;;9.01;100.00;96989.59;5042212;28;20420;-66
2024/03/01 03:12:13;;;;;;;0.60;0.60;;;;;;;8.51;100.00;96993.19;5042051;28;20490;-66
2024/03/01 03:14:39;;;;;;;0.70;0.70;;;;;;;8.04;100.00;96988.81;5041797;28;20049;-56
2024/03/01 03:17:06;;;;;;;0.60;0.60;;;;;;;7.55;100.00;96958.78;5042558;28;20057;-66
2024/03/01 03:19:34;;;;;;;0.70;0.70;;;;;;;8.00;100.00;96985.16;5041953;28;20136;-58
2024/03/01 03:22:08;;;;;;;0.60;0.60;;;;;;;8.23;100.00;96981.47;5042360;28;20045;-57
2024/03/01 03:24:39;;;;;;;0.70;0.70;;;;;;;7.88;100.00;96979.72;5042066;28;20049;-66
2024/03/01 03:27:07;;;;;;;0.70;0.70;;;;;;;7.61;100.00;96949.09;5042041;28;20530;-58
2024/03/01 03:29:35;;;;;;;0.60;0.60;;;;;;;7.68;100.00;96954.78;5042400;28;20492;-56
2024/03/01 03:32:06;;;;;;;0.65;0.65;;;;;;;7.93;100.00;96949.13;5042914;28;20053;-66
2024/03/01 03:34:35;;;;;;;0.60;0.60;;;;;;;8.07;100.00;96955.00;5042867;28;20060;-57
2024/03/01 03:37:02;;;;;;;0.65;0.65;;;;;;;8.26;100.00;96953.16;5042465;28;20059;-57
2024/03/01 03:39:29;;;;;;;0.60;0.60;;;;;;;8.01;100.00;96902.06;5042280;28;20468;-56
2024/03/01 03:41:56;;;;;;;0.70;0.70;;;;;;;8.16;100.00;96903.19;5042249;28;20045;-56
2024/03/01 03:44:23;;;;;;;0.70;0.70;;;;;;;8.17;100.00;96954.47;5041941;28;20055;-68
2024/03/01 03:46:49;;;;;;;0.65;0.65;;;;;;;8.04;100.00;96944.66;5057098;28;20049;-59
2024/03/01 03:49:16;;;;;;;0.70;0.70;;;;;;;8.30;100.00;96943.00;5041575;28;20543;-67
2024/03/01 03:51:43;;;;;;;0.70;0.70;;;;;;;8.14;100.00;96955.19;5041713;28;20052;-65
2024/03/01 03:54:13;;;;;;;0.60;0.60;;;;;;;7.92;100.00;96948.31;5041866;28;20057;-57
2024/03/01 03:56:41;;;;;;;0.60;0.60;;;;;;;7.85;100.00;96945.38;5042022;28;20045;-59
2024/03/01 03:59:09;;;;;;;0.60;0.60;;;;;;;7.74;100.00;96942.34;5058788;28;20083;-66
2024/03/01 04:01:36;;;;;;;0.70;0.70;;;;;;;7.53;100.00;96892.19;5061634;28;20335;-57
2024/03/01 04:04:04;;;;;;;0.63;0.63;;;;;;;7.99;100.00;96944.94;5060065;28;20176;-66
2024/03/01 04:06:30;;;;;;;0.60;0.60;;;;;;;7.61;100.00;96866.41;5062213;28;20056;-66
2024/03/01 04:08:57;;;;;;;0.63;0.63;;;;;;;8.41;100.00;96937.75;5061640;28;20054;-66
2024/03/01 04:11:24;;;;;;;0.60;0.60;;;;;;;8.59;100.00;96945.25;5062058;28;20151;-66
2024/03/01 04:13:51;;;;;;;0.70;0.70;;;;;;;8.67;100.00;96940.69;5062464;28;20060;-65
2024/03/01 04:16:18;;;;;;;0.70;0.70;;;;;;;8.80;100.00;96940.19;5060614;28;20052;-67
2024/03/01 04:18:45;;;;;;;0.70;0.70;;;;;;;8.55;100.00;96888.38;5062022;28;20049;-59
2024/03/01 04:21:11;;;;;;;0.70;0.70;;;;;;;8.95;100.00;96936.59;5064583;28;20525;-67
2024/03/01 04:23:38;;;;;;;0.70;0.70;;;;;;;8.99;100.00;96937.47;5065106;28;20506;-66
2024/03/01 04:26:09;;;;;;;0.70;0.70;;;;;;;9.05;100.00;96924.16;5064729;28;20491;-66
2024/03/01 04:28:39;;;;;;;0.70;0.70;;;;;;;9.00;100.00;96905.13;5065331;28;20490;-57
2024/03/01 04:31:07;;;;;;;0.68;0.68;;;;;;;9.06;100.00;96903.66;5064709;28;20048;-57
2024/03/01 04:33:38;;;;;;;0.70;0.70;;;;;;;9.26;100.00;96916.31;5064872;28;20049;-66
2024/03/01 04:36:06;;;;;;;0.75;0.75;;;;;;;9.27;100.00;96920.69;5064751;28;20920;-57
2024/03/01 04:38:33;;;;;;;0.70;0.70;;;;;;;9.36;100.00;96912.94;5064880;28;20416;-66
2024/03/01 04:41:00;;;;;;;0.80;0.80;;;;;;;9.21;100.00;96894.50;5064734;28;20067;-66
2024/03/01 04:43:27;;;;;;;0.70;0.70;;;;;;;9.32;100.00;96912.09;5064716;28;20051;-59
2024/03/01 04:45:54;;;;;;;0.77;0.77;;;;;;;9.25;100.00;96905.63;5065012;28;20064;-66
2024/03/01 04:48:20;;;;;;;0.70;0.70;;;;;;;9.20;100.00;96915.00;5065048;28;20056;-56
2024/03/01 04:50:47;;;;;;;0.80;0.80;;;;;;;9.23;100.00;96914.28;5063498;28;20045;-65
2024/03/01 04:53:14;;;;;;;0.70;0.70;;;;;;;9.25;100.00;96916.69;5064905;28;20063;-58
2024/03/01 04:55:41;;;;;;;0.80;0.80;;;;;;;9.28;100.00;96916.72;5064874;28;20113;-57
2024/03/01 04:58:08;;;;;;;0.73;0.73;;;;;;;9.42;100.00;96919.78;5065012;28;20076;-57
2024/03/01 05:00:34;;;;;;;0.70;0.70;;;;;;;9.32;100.00;96912.09;5064091;28;20488;-57
2024/03/01 05:03:06;;;;;;;0.70;0.70;;;;;;;8.93;100.00;96855.25;5064811;28;20153;-60
2024/03/01 05:05:34;;;;;;;0.70;0.70;;;;;;;8.96;100.00;96868.34;5064332;28;20052;-66
2024/03/01 05:08:01;;;;;;;0.70;0.70;;;;;;;9.29;100.00;96907.28;5062939;28;20059;-57
2024/03/01 05:10:27;;;;;;;0.70;0.70;;;;;;;9.35;100.00;96927.94;5064325;28;20048;-66
2024/03/01 05:12:54;;;;;;;0.80;0.80;;;;;;;9.22;100.00;96923.72;5062613;28;20056;-67
2024/03/01 05:15:21;;;;;;;0.70;0.70;;;;;;;9.29;100.00;96943.22;5046974;28;20052;-59
2024/03/01 05:17:48;;;;;;;0.80;0.80;;;;;;;9.41;100.00;96937.53;5044764;28;20049;-56
2024/03/01 05:20:16;;;;;;;0.70;0.70;;;;;;;8.98;100.00;96868.75;5042477;28;20060;-67
2024/03/01 05:22:43;;;;;;;0.70;0.70;;;;;;;9.15;100.00;96934.66;5076117;28;20094;-66
2024/03/01 05:25:16;;;;;;;0.77;0.77;;;;;;;8.67;100.00;96885.47;5042454;28;20048;-66
2024/03/01 05:27:46;;;;;;;0.70;0.70;;;;;;;8.91;100.00;96935.72;5043793;28;20060;-66
2024/03/01 05:30:17;;;;;;;0.80;0.80;;;;;;;9.01;100.00;96937.09;5043637;28;20044;-58
2024/03/01 05:33:03;;;;;;;0.70;0.70;;;;;;;8.81;100.00;96863.69;5042948;28;20053;-66
2024/03/01 05:35:30;;;;;;;0.80;0.80;;;;;;;9.31;100.00;96937.34;5043171;28;20052;-66
2024/03/01 05:37:58;;;;;;;0.70;0.70;;;;;;;9.35;100.00;96932.66;5043874;28;20137;-57
2024/03/01 05:40:26;;;;;;;0.70;0.70;;;;;;;9.13;100.00;96887.25;5043521;28;20055;-67
2024/03/01 05:42:53;;;;;;;0.80;0.80;;;;;;;9.43;100.00;96932.44;5043581;28;20053;-65
2024/03/01 05:45:21;;;;;;;0.75;0.75;;;;;;;9.40;100.00;96929.59;5044029;28;20157;-67
2024/03/01 05:47:48;;;;;;;0.77;0.77;;;;;;;9.08;100.00;96865.41;5044032;28;20045;-67
2024/03/01 05:50:15;;;;;;;0.70;0.70;;;;;;;9.53;100.00;96940.13;5042489;28;20137;-55
2024/03/01 05:52:43;;;;;;;0.80;0.80;;;;;;;9.68;100.00;96941.19;5043899;28;20057;-59
2024/03/01 05:55:14;;;;;;;0.70;0.70;;;;;;;9.65;100.00;96937.22;5044138;28;20049;-60
2024/03/01 05:57:41;;;;;;;0.80;0.80;;;;;;;9.38;100.00;96902.34;5045826;28;20052;-57
2024/03/01 06:00:18;;;;;;;0.77;0.77;;;;;;;9.81;100.00;96951.75;5061677;28;20061;-57
2024/03/01 06:02:46;;;;;;;0.70;0.70;;;;;;;9.26;100.00;96880.41;5061863;28;20048;-57
2024/03/01 06:05:14;;;;;;;0.73;0.73;;;;;;;9.49;100.00;96925.44;5061208;28;20055;-67
2024/03/01 06:07:42;;;;;;;0.80;0.80;;;;;;;9.60;100.00;96967.13;5061066;28;20155;-66
2024/03/01 06:10:09;;;;;;;0.70;0.70;;;;;;;9.36;100.00;96893.59;5061936;28;20128;-57
2024/03/01 06:12:36;;;;;;;0.80;0.80;;;;;;;9.49;100.00;96927.41;5061605;28;20053;-67
2024/03/01 06:15:04;;;;;;;0.80;0.80;;;;;;;9.79;100.00;96965.13;5063346;28;20045;-67
2024/03/01 06:17:32;;;;;;;0.80;0.80;;;;;;;9.78;100.00;96962.75;5061656;28;20531;-67
2024/03/01 06:19:59;;;;;;;0.80;0.80;;;;;;;9.92;100.00;96963.81;5062174;28;20539;-57
2024/03/01 06:22:29;;;;;;;0.80;0.80;;;;;;;10.03;100.00;96969.50;5062238;28;20059;-66
2024/03/01 06:24:56;;;;;;;0.80;0.80;;;;;;;10.06;100.00;96957.72;5061672;28;20227;-67
2024/03/01 06:27:23;;;;;;;0.80;0.80;;;;;;;10.07;100.00;96960.13;5061094;28;20049;-57
2024/03/01 06:29:50;;;;;;;0.80;0.80;;;;;;;10.00;100.00;96946.16;5059478;28;20306;-66
2024/03/01 06:32:17;;;;;;;0.80;0.80;;;;;;;10.12;100.00;96957.06;5061065;28;20060;-67
2024/03/01 06:34:46;;;;;;;0.70;0.70;;;;;;;10.16;100.00;96941.31;5061643;28;20080;-66
2024/03/01 06:37:14;;;;;;;0.80;0.80;;;;;;;9.80;100.00;96949.34;5061365;28;20064;-67
2024/03/01 06:39:41;;;;;;;0.75;0.75;;;;;;;9.84;100.00;96945.47;5063035;28;20169;-57
2024/03/01 06:42:07;;;;;;;0.73;0.73;;;;;;;9.23;100.00;96894.94;5060537;28;20506;-67
2024/03/01 06:44:34;;;;;;;0.75;0.75;;;;;;;9.85;100.00;96947.06;5062837;28;20052;-60
2024/03/01 06:47:01;;;;;;;0.73;0.73;;;;;;;9.80;100.00;96939.06;5062406;28;20067;-56
2024/03/01 06:49:37;;;;;;;0.80;0.80;;;;;;;9.67;100.00;96951.50;5060797;28;20072;-62
2024/03/01 06:52:04;;;;;;;0.70;0.70;;;;;;;9.22;100.00;96890.56;5062328;28;20052;-66
2024/03/01 06:54:30;;;;;;;0.70;0.70;;;;;;;9.68;100.00;96953.06;5062264;28;20576;-64
2024/03/01 06:56:58;;;;;;;0.85;0.85;;;;;;;9.97;100.00;96965.47;5060518;28;20495;-61
2024/03/01 06:59:25;;;;;;;0.70;0.70;;;;;;;9.66;100.00;96915.91;5061326;28;20076;-65
2024/03/01 07:01:51;;;;;;;0.80;0.80;;;;;;;10.01;100.00;96972.66;5062104;28;20052;-59
2024/03/01 07:04:20;;;;;;;0.80;0.80;;;;;;;10.10;100.00;96953.84;5062394;28;20726;-66
2024/03/01 07:06:47;;;;;;;0.80;0.80;;;;;;;10.18;100.00;96955.59;5062344;28;20777;-69
2024/03/01 07:09:14;;;;;;;0.80;0.80;;;;;;;10.34;100.00;96936.88;5062036;28;20075;-65
2024/03/01 07:11:41;;;;;;;0.88;0.88;;;;;;;10.17;100.00;96898.63;5061129;28;20049;-61
2024/03/01 07:14:08;;;;;;;0.80;0.80;;;;;;;10.65;100.00;96947.63;5056159;28;20463;-68
2024/03/01 07:16:35;;;;;;;0.82;0.82;;;;;;;10.78;100.00;96944.66;5060494;28;20080;-65
2024/03/01 07:19:02;;;;;;;0.90;0.90;;;;;;;9.37;96.26;96687.91;5061138;28;20048;-65
2024/03/01 07:21:28;;;;;;;0.88;0.88;;;;;;;10.38;96.37;96876.03;5062201;28;20053;-59
2024/03/01 07:23:55;;;;;;;0.80;0.80;;;;;;;10.91;96.60;96946.06;5061770;28;20052;-74
2024/03/01 07:26:22;;;;;;;0.82;0.82;;;;;;;10.94;95.58;96948.06;5061486;28;20044;-68
2024/03/01 07:28:49;;;;;;;0.90;0.90;;;;;;;10.65;96.91;96899.75;5060986;28;20048;-60
2024/03/01 07:31:16;;;;;;;0.85;0.85;;;;;;;10.95;96.73;96933.03;5061628;28;20052;-59
2024/03/01 07:33:43;;;;;;;0.90;0.90;;;;;;;11.19;97.15;96924.25;5061616;28;20083;-74
2024/03/01 07:36:12;;;;;;;0.90;0.90;;;;;;;11.05;95.51;96904.66;5061503;28;20057;-61
2024/03/01 07:38:39;;;;;;;0.90;0.90;;;;;;;10.97;94.78;96937.00;5061476;28;20048;-59
2024/03/01 07:41:06;;;;;;;0.80;0.80;;;;;;;10.92;96.23;96894.97;5056109;28;20045;-69
2024/03/01 07:43:33;;;;;;;0.80;0.80;;;;;;;11.35;95.46;96963.66;5059866;28;20235;-61
2024/03/01 07:46:00;;;;;;;0.90;0.90;;;;;;;11.42;95.40;96958.19;5060711;28;20101;-71
2024/03/01 07:48:27;;;;;;;0.80;0.80;;;;;;;11.55;94.20;96956.78;5060137;28;20048;-69
2024/03/01 07:50:54;;;;;;;0.90;0.90;;;;;;;11.51;93.71;96956.72;5061025;28;20098;-61
2024/03/01 07:53:21;;;;;;;0.90;0.90;;;;;;;11.20;93.94;96959.09;5060123;28;20844;-62
2024/03/01 07:55:47;;;;;;;0.90;0.90;;;;;;;11.25;95.19;96942.94;5063417;28;20048;-63
2024/03/01 07:58:15;;;;;;;0.90;0.90;;;;;;;11.05;94.54;96954.56;5049699;28;20493;-59
2024/03/01 08:00:42;;;;;;;0.90;0.90;;;;;;;10.76;96.16;96935.91;5064372;28;20536;-67
2024/03/01 08:03:10;;;;;;;0.80;0.80;;;;;;;10.86;95.68;96935.28;5061682;28;20055;-60
2024/03/01 08:05:38;;;;;;;0.80;0.80;;;;;;;10.14;96.01;96902.16;5044322;28;20141;-66
2024/03/01 08:08:07;;;;;;;0.70;0.70;;;;;;;8.65;100.00;96876.75;5045564;28;20146;-61
2024/03/01 08:10:40;;;;;;;0.70;0.70;;;;;;;9.05;100.00;96858.66;5044948;28;20143;-61
2024/03/01 08:13:07;;;;;;;0.80;0.80;;;;;;;9.31;100.00;96945.63;5062018;28;20118;-61
2024/03/01 08:15:38;;;;;;;0.80;0.80;;;;;;;9.67;100.00;96940.44;5064329;28;20630;-60
2024/03/01 08:18:22;;;;;;;0.70;0.70;;;;;;;7.04;100.00;96538.38;5065951;27;20361;-68
2024/03/01 08:20:55;;;;;;;0.70;0.70;;;;;;;9.03;100.00;97014.91;5064316;28;20048;-60
2024/03/01 08:23:26;;;;;;;0.70;0.70;;;;;;;9.11;100.00;96897.84;5062250;28;20449;-64
2024/03/01 08:25:53;;;;;;;0.70;0.70;;;;;;;9.13;100.00;96881.72;5064038;28;20080;-63
2024/03/01 08:28:29;;;;;;;0.70;0.70;;;;;;;9.10;100.00;96899.78;5063717;28;20051;-66
2024/03/01 08:30:56;;;;;;;0.73;0.73;;;;;;;9.65;100.00;96926.16;5064886;28;20044;-63
2024/03/01 08:33:23;;;;;;;0.73;0.73;;;;;;;9.82;100.00;96942.25;5064021;28;20391;-65
2024/03/01 08:35:50;;;;;;;0.70;0.70;;;;;;;9.94;100.00;96950.38;5064607;28;20554;-63
2024/03/01 08:38:39;;;;;;;0.70;0.70;;;;;;;9.77;100.00;96934.28;5062873;28;20048;-61
2024/03/01 08:41:08;;;;;;;0.70;0.70;;;;;;;10.08;100.00;96917.47;5046230;28;20118;-63
2024/03/01 08:43:36;;;;;;;0.70;0.70;;;;;;;9.18;100.00;96923.66;5062324;28;20052;-60
2024/03/01 08:46:05;;;;;;;0.70;0.70;;;;;;;9.34;100.00;96926.34;5062480;28;20131;-67
2024/03/01 08:48:33;;;;;;;0.70;0.70;;;;;;;9.60;100.00;96931.16;5062415;28;20063;-65
2024/03/01 08:51:01;;;;;;;0.70;0.70;;;;;;;9.96;100.00;96920.38;5060302;28;20436;-61
2024/03/01 08:53:34;;;;;;;0.77;0.77;;;;;;;10.12;100.00;96929.38;5061542;28;20603;-63
2024/03/01 08:56:00;;;;;;;0.80;0.80;;;;;;;10.32;100.00;96917.06;5062644;28;20102;-61
2024/03/01 08:58:29;;;;;;;0.70;0.70;;;;;;;9.48;100.00;96912.81;5059405;28;20430;-68
2024/03/01 09:00:58;;;;;;;0.80;0.80;;;;;;;9.57;100.00;96896.78;5073720;28;20044;-61
2024/03/01 09:03:29;;;;;;;0.70;0.70;;;;;;;9.24;100.00;96904.81;5061104;28;20110;-60
2024/03/01 09:05:58;;;;;;;0.70;0.70;;;;;;;9.73;100.00;96916.81;5064938;28;20508;-59
2024/03/01 09:08:34;;;;;;;0.80;0.80;;;;;;;10.20;100.00;96936.66;5064160;28;20058;-65
2024/03/01 09:11:02;;;;;;;0.90;0.90;;;;;;;10.66;100.00;96960.34;5061332;28;20527;-63
2024/03/01 09:13:31;;;;;;;0.70;0.70;;;;;;;10.90;100.00;96942.47;5059554;28;20113;-63
2024/03/01 09:15:58;;;;;;;0.80;0.80;;;;;;;10.31;100.00;96940.38;5096343;27;20040;-67
2024/03/01 09:18:27;;;;;;;0.80;0.80;;;;;;;10.40;100.00;96923.53;5077672;28;20158;-61
2024/03/01 09:20:55;;;;;;;0.90;0.90;;;;;;;10.94;100.00;96925.91;5082565;28;20056;-61
2024/03/01 09:23:22;;;;;;;0.80;0.80;;;;;;;11.31;98.62;96933.13;5060202;28;20155;-61
2024/03/01 09:25:49;;;;;;;0.80;0.80;;;;;;;11.61;96.01;96933.06;5061264;28;20056;-62
2024/03/01 09:28:19;;;;;;;0.90;0.90;;;;;;;11.84;92.67;96928.16;5060213;28;20056;-63
2024/03/01 09:30:51;;;;;;;0.90;0.90;;;;;;;12.07;90.05;96939.91;5058486;28;20055;-64
2024/03/01 09:33:22;;;;;;;0.80;0.80;;;;;;;10.95;92.90;96938.56;5065027;28;20048;-62
2024/03/01 09:35:50;;;;;;;0.80;0.80;;;;;;;11.43;89.09;96954.25;5063511;28;20044;-65
2024/03/01 09:38:21;;;;;;;0.90;0.90;;;;;;;12.06;90.53;96939.09;5067833;28;20068;-60
2024/03/01 09:40:50;;;;;;;0.82;0.82;;;;;;;11.25;90.68;96925.50;5073358;28;20052;-61
2024/03/01 09:43:54;;;;;;;0.80;0.80;;;;;;;11.08;93.76;96920.53;5071101;28;20055;-58
2024/03/01 09:46:27;;;;;;;0.90;0.90;;;;;;;11.89;91.68;96916.72;5061977;28;20059;-70
2024/03/01 09:49:18;;;;;;;0.82;0.82;;;;;;;12.44;89.39;96926.72;5063748;28;20044;-62
2024/03/01 09:51:45;;;;;;;0.90;0.90;;;;;;;12.82;86.56;96925.44;5063025;28;20101;-65
2024/03/01 09:54:28;;;;;;;1.00;1.00;;;;;;;12.93;83.86;96915.94;5062360;28;20057;-63
2024/03/01 09:57:28;;;;;;;1.00;1.00;;;;;;;13.16;82.80;96912.94;5062641;28;20058;-61
2024/03/01 10:00:11;;;;;;;1.02;1.02;;;;;;;13.51;82.08;96913.84;5050477;28;20539;-62
2024/03/01 10:02:51;;;;;;;0.98;0.98;;;;;;;12.91;80.19;96910.00;5040765;28;20163;-60
2024/03/01 10:05:44;;;;;;;1.02;1.02;;;;;;;13.02;81.76;96929.53;5090041;28;20769;-64
2024/03/01 10:08:45;;;;;;;0.95;0.95;;;;;;;13.17;80.38;96920.06;5062085;28;20098;-65
2024/03/01 10:11:26;;;;;;;1.10;1.10;;;;;;;12.63;80.78;96862.56;5060962;28;20048;-62
2024/03/01 10:14:13;;;;;;;1.00;1.00;;;;;;;12.55;81.96;96915.72;5062334;28;20060;-61
2024/03/01 10:16:54;;;;;;;0.98;0.98;;;;;;;12.38;82.88;96914.38;5062063;28;20136;-58
2024/03/01 10:19:39;;;;;;;1.00;1.00;;;;;;;11.68;86.11;96910.97;5061866;28;20510;-69
2024/03/01 10:22:27;;;;;;;0.80;0.80;;;;;;;11.10;89.60;96907.06;5059236;28;20124;-63
2024/03/01 10:25:31;;;;;;;0.80;0.80;;;;;;;10.56;93.31;96899.22;5093688;28;20049;-64
2024/03/01 10:28:24;;;;;;;0.80;0.80;;;;;;;10.31;93.90;96898.84;5061443;28;20056;-61
2024/03/01 10:31:29;;;;;;;0.82;0.82;;;;;;;10.73;91.84;96891.16;5057633;28;20594;-66
2024/03/01 10:34:06;;;;;;;0.77;0.77;;;;;;;11.54;91.33;96888.59;5058923;28;20052;-63
2024/03/01 10:36:42;;;;;;;0.90;0.90;;;;;;;11.40;86.97;96772.75;5057756;28;20052;-63
2024/03/01 10:39:14;;;;;;;0.80;0.80;;;;;;;12.56;85.25;96884.78;5061859;28;20045;-57
2024/03/01 10:42:19;;;;;;;1.00;1.00;;;;;;;12.31;82.74;96883.78;5065124;28;20048;-64
2024/03/01 10:45:05;;;;;;;;;;;;;;;11.41;88.34;96887.28;5059636;28;20157;-58
2024/03/01 10:47:33;;;;;;;0.80;0.80;;;;;;;10.41;91.41;96826.25;5093965;28;20029;-63
2024/03/01 10:50:23;;;;;;;0.80;0.80;;;;;;;10.96;92.18;96887.50;5061821;28;20081;-64
2024/03/01 10:53:18;;;;;;;0.88;0.88;;;;;;;10.86;91.19;96886.19;5056143;28;20067;-63
2024/03/01 10:56:06;;;;;;;0.80;0.80;;;;;;;10.72;92.41;96885.22;5061337;28;20048;-63
2024/03/01 10:58:44;;;;;;;0.90;0.90;;;;;;;11.15;92.22;96873.47;5061257;28;20045;-60
2024/03/01 11:01:22;;;;;;;0.90;0.90;;;;;;;10.70;91.84;96858.66;5061386;28;20064;-59
2024/03/01 11:03:57;;;;;;;0.80;0.80;;;;;;;11.39;90.10;96870.19;5060224;28;20751;-65
2024/03/01 11:06:44;;;;;;;0.80;0.80;;;;;;;11.06;91.63;96864.66;5060755;28;20048;-65
2024/03/01 11:09:21;;;;;;;0.80;0.80;;;;;;;11.14;90.23;96860.81;5060260;28;20068;-58
2024/03/01 11:11:56;;;;;;;0.80;0.80;;;;;;;11.93;88.41;96862.06;5062325;28;20052;-65
2024/03/01 11:14:25;;;;;;;0.90;0.90;;;;;;;12.28;85.12;96859.56;5059737;28;20051;-65
2024/03/01 11:16:55;;;;;;;0.90;0.90;;;;;;;12.63;81.38;96856.22;5059499;28;20137;-59
2024/03/01 11:19:24;;;;;;;0.90;0.90;;;;;;;11.83;82.89;96846.91;5059978;28;20048;-58
2024/03/01 11:22:19;;;;;;;0.88;0.88;;;;;;;12.22;85.03;96824.22;5058947;28;20074;-61
2024/03/01 11:24:57;;;;;;;0.80;0.80;;;;;;;11.36;85.95;96832.16;5058777;28;20056;-62
2024/03/01 11:27:29;;;;;;;0.80;0.80;;;;;;;11.89;83.01;96783.50;5059966;28;20049;-59
2024/03/01 11:30:06;;;;;;;0.98;0.98;;;;;;;12.37;81.25;96804.47;5062420;28;20049;-59
2024/03/01 11:32:39;;;;;;;0.90;0.90;;;;;;;12.91;79.10;96823.81;5066178;28;20076;-61
2024/03/01 11:35:21;;;;;;;1.00;1.00;;;;;;;12.94;77.81;96814.69;5066251;28;20052;-59
2024/03/01 11:38:34;;;;;;;1.00;1.00;;;;;;;12.33;81.47;96803.63;5066120;28;20060;-59
2024/03/01 11:41:13;;;;;;;1.00;1.00;;;;;;;12.44;79.53;96743.38;5062870;28;20091;-58
2024/03/01 11:43:55;;;;;;;1.00;1.00;;;;;;;12.51;78.94;96790.66;5065783;28;20513;-59
2024/03/01 11:46:49;;;;;;;0.90;0.90;;;;;;;12.69;79.90;96788.78;5065900;28;20056;-64
2024/03/01 11:49:41;;;;;;;1.00;1.00;;;;;;;12.79;77.76;96788.00;5064813;28;20051;-63